sensor_id;sensor_type;location;lat;lon;timestamp;temperature;humidity
10046;DHT22;5063;50.878;4.742;2023-04-15T00:00:48;9.60;99.90
10046;DHT22;5063;50.878;4.742;2023-04-15T00:03:16;9.70;99.90
10046;DHT22;5063;50.878;4.742;2023-04-15T00:05:42;9.70;99.90
10046;DHT22;5063;50.878;4.742;2023-04-15T00:08:07;9.80;99.90
10046;DHT22;5063;50.878;4.742;2023-04-15T00:10:33;9.90;99.90
10046;DHT22;5063;50.878;4.742;2023-04-15T00:13:00;9.90;99.90
10046;DHT22;5063;50.878;4.742;2023-04-15T00:15:26;10.00;99.90
10046;DHT22;5063;50.878;4.742;2023-04-15T00:17:52;9.90;99.90
10046;DHT22;5063;50.878;4.742;2023-04-15T00:20:18;9.90;99.90
10046;DHT22;5063;50.878;4.742;2023-04-15T00:22:43;9.90;99.90
10046;DHT22;5063;50.878;4.742;2023-04-15T00:25:09;10.00;99.90
10046;DHT22;5063;50.878;4.742;2023-04-15T00:27:35;10.00;99.90
10046;DHT22;5063;50.878;4.742;2023-04-15T00:30:01;9.90;99.90
10046;DHT22;5063;50.878;4.742;2023-04-15T00:32:28;9.90;99.90
10046;DHT22;5063;50.878;4.742;2023-04-15T00:34:54;9.90;99.90
10046;DHT22;5063;50.878;4.742;2023-04-15T00:37:20;9.80;99.90
10046;DHT22;5063;50.878;4.742;2023-04-15T00:39:46;9.80;99.90
10046;DHT22;5063;50.878;4.742;2023-04-15T00:42:12;9.80;99.90
10046;DHT22;5063;50.878;4.742;2023-04-15T00:44:38;9.80;99.90
10046;DHT22;5063;50.878;4.742;2023-04-15T00:47:04;9.80;99.90
10046;DHT22;5063;50.878;4.742;2023-04-15T00:49:31;9.80;99.90
10046;DHT22;5063;50.878;4.742;2023-04-15T00:51:56;9.80;99.90
10046;DHT22;5063;50.878;4.742;2023-04-15T00:54:22;9.80;99.90
10046;DHT22;5063;50.878;4.742;2023-04-15T00:56:48;9.80;99.90
10046;DHT22;5063;50.878;4.742;2023-04-15T00:59:14;9.80;99.90
10046;DHT22;5063;50.878;4.742;2023-04-15T01:01:40;9.80;99.90
10046;DHT22;5063;50.878;4.742;2023-04-15T01:04:06;9.80;99.90
10046;DHT22;5063;50.878;4.742;2023-04-15T01:06:32;9.80;99.90
10046;DHT22;5063;50.878;4.742;2023-04-15T01:08:59;9.80;99.90
10046;DHT22;5063;50.878;4.742;2023-04-15T01:11:25;9.80;99.90
10046;DHT22;5063;50.878;4.742;2023-04-15T01:13:51;9.80;99.90
10046;DHT22;5063;50.878;4.742;2023-04-15T01:16:18;9.90;99.90
10046;DHT22;5063;50.878;4.742;2023-04-15T01:18:44;9.90;99.90
10046;DHT22;5063;50.878;4.742;2023-04-15T01:21:10;9.90;99.90
10046;DHT22;5063;50.878;4.742;2023-04-15T01:23:37;9.90;99.90
10046;DHT22;5063;50.878;4.742;2023-04-15T01:26:05;9.90;99.90
10046;DHT22;5063;50.878;4.742;2023-04-15T01:28:32;9.90;99.90
10046;DHT22;5063;50.878;4.742;2023-04-15T01:31:18;9.90;99.90
10046;DHT22;5063;50.878;4.742;2023-04-15T01:33:45;9.90;99.90
10046;DHT22;5063;50.878;4.742;2023-04-15T01:36:11;9.90;99.90
10046;DHT22;5063;50.878;4.742;2023-04-15T01:38:37;9.90;99.90
10046;DHT22;5063;50.878;4.742;2023-04-15T01:41:03;9.90;99.90
10046;DHT22;5063;50.878;4.742;2023-04-15T01:43:31;9.90;99.90
10046;DHT22;5063;50.878;4.742;2023-04-15T01:45:57;9.90;99.90
10046;DHT22;5063;50.878;4.742;2023-04-15T01:48:23;9.80;99.90
10046;DHT22;5063;50.878;4.742;2023-04-15T01:50:48;9.80;99.90
10046;DHT22;5063;50.878;4.742;2023-04-15T01:53:14;9.80;99.90
10046;DHT22;5063;50.878;4.742;2023-04-15T01:55:41;9.70;99.90
10046;DHT22;5063;50.878;4.742;2023-04-15T01:58:07;9.70;99.90
10046;DHT22;5063;50.878;4.742;2023-04-15T02:00:32;9.70;99.90
10046;DHT22;5063;50.878;4.742;2023-04-15T02:02:58;9.70;99.90
10046;DHT22;5063;50.878;4.742;2023-04-15T02:05:24;9.60;99.90
10046;DHT22;5063;50.878;4.742;2023-04-15T02:07:50;9.60;99.90
10046;DHT22;5063;50.878;4.742;2023-04-15T02:10:16;9.60;99.90
10046;DHT22;5063;50.878;4.742;2023-04-15T02:12:42;9.70;99.90
10046;DHT22;5063;50.878;4.742;2023-04-15T02:15:08;9.70;99.90
10046;DHT22;5063;50.878;4.742;2023-04-15T02:17:35;9.70;99.90
10046;DHT22;5063;50.878;4.742;2023-04-15T02:20:02;9.60;99.90
10046;DHT22;5063;50.878;4.742;2023-04-15T02:22:30;9.60;99.90
10046;DHT22;5063;50.878;4.742;2023-04-15T02:24:56;9.60;99.90
10046;DHT22;5063;50.878;4.742;2023-04-15T02:27:22;9.60;99.90
10046;DHT22;5063;50.878;4.742;2023-04-15T02:29:47;9.60;99.90
10046;DHT22;5063;50.878;4.742;2023-04-15T02:32:15;9.60;99.90
10046;DHT22;5063;50.878;4.742;2023-04-15T02:34:42;9.60;99.90
10046;DHT22;5063;50.878;4.742;2023-04-15T02:37:11;9.60;99.90
10046;DHT22;5063;50.878;4.742;2023-04-15T02:39:38;9.60;99.90
10046;DHT22;5063;50.878;4.742;2023-04-15T02:42:03;9.50;99.90
10046;DHT22;5063;50.878;4.742;2023-04-15T02:44:31;9.40;99.90
10046;DHT22;5063;50.878;4.742;2023-04-15T02:46:57;9.40;99.90
10046;DHT22;5063;50.878;4.742;2023-04-15T02:49:24;9.40;99.90
10046;DHT22;5063;50.878;4.742;2023-04-15T02:51:50;9.50;99.90
10046;DHT22;5063;50.878;4.742;2023-04-15T02:54:19;9.40;99.90
10046;DHT22;5063;50.878;4.742;2023-04-15T02:56:45;9.40;99.90
10046;DHT22;5063;50.878;4.742;2023-04-15T02:59:11;9.40;99.90
10046;DHT22;5063;50.878;4.742;2023-04-15T03:01:37;9.30;99.90
10046;DHT22;5063;50.878;4.742;2023-04-15T03:04:03;9.30;99.90
10046;DHT22;5063;50.878;4.742;2023-04-15T03:06:29;9.30;99.90
10046;DHT22;5063;50.878;4.742;2023-04-15T03:08:55;9.20;99.90
10046;DHT22;5063;50.878;4.742;2023-04-15T03:11:21;9.10;99.90
10046;DHT22;5063;50.878;4.742;2023-04-15T03:13:47;9.10;99.90
10046;DHT22;5063;50.878;4.742;2023-04-15T03:16:13;9.10;99.90
10046;DHT22;5063;50.878;4.742;2023-04-15T03:18:39;9.20;99.90
10046;DHT22;5063;50.878;4.742;2023-04-15T03:21:04;9.10;99.90
10046;DHT22;5063;50.878;4.742;2023-04-15T03:23:31;9.10;99.90
10046;DHT22;5063;50.878;4.742;2023-04-15T03:25:56;9.10;99.90
10046;DHT22;5063;50.878;4.742;2023-04-15T03:28:23;9.10;99.90
10046;DHT22;5063;50.878;4.742;2023-04-15T03:30:49;9.10;99.90
10046;DHT22;5063;50.878;4.742;2023-04-15T03:33:15;9.10;99.90
10046;DHT22;5063;50.878;4.742;2023-04-15T03:35:40;9.00;99.90
10046;DHT22;5063;50.878;4.742;2023-04-15T03:38:06;9.00;99.90
10046;DHT22;5063;50.878;4.742;2023-04-15T03:40:32;9.00;99.90
10046;DHT22;5063;50.878;4.742;2023-04-15T03:42:58;8.90;99.90
10046;DHT22;5063;50.878;4.742;2023-04-15T03:45:24;8.90;99.90
10046;DHT22;5063;50.878;4.742;2023-04-15T03:47:50;8.90;99.90
10046;DHT22;5063;50.878;4.742;2023-04-15T03:50:16;8.80;99.90
10046;DHT22;5063;50.878;4.742;2023-04-15T03:52:41;8.90;99.90
10046;DHT22;5063;50.878;4.742;2023-04-15T03:55:07;8.80;99.90
10046;DHT22;5063;50.878;4.742;2023-04-15T03:57:34;8.80;99.90
10046;DHT22;5063;50.878;4.742;2023-04-15T04:00:07;8.70;99.90
10046;DHT22;5063;50.878;4.742;2023-04-15T04:02:36;8.80;99.90
10046;DHT22;5063;50.878;4.742;2023-04-15T04:05:02;8.60;99.90
10046;DHT22;5063;50.878;4.742;2023-04-15T04:07:28;8.80;99.90
10046;DHT22;5063;50.878;4.742;2023-04-15T04:09:56;8.80;99.90
10046;DHT22;5063;50.878;4.742;2023-04-15T04:12:21;8.80;99.90
10046;DHT22;5063;50.878;4.742;2023-04-15T04:14:47;8.70;99.90
10046;DHT22;5063;50.878;4.742;2023-04-15T04:17:13;8.70;99.90
10046;DHT22;5063;50.878;4.742;2023-04-15T04:19:38;8.70;99.90
10046;DHT22;5063;50.878;4.742;2023-04-15T04:22:04;8.70;99.90
10046;DHT22;5063;50.878;4.742;2023-04-15T04:24:30;8.70;99.90
10046;DHT22;5063;50.878;4.742;2023-04-15T04:26:56;8.70;99.90
10046;DHT22;5063;50.878;4.742;2023-04-15T04:29:22;8.70;99.90
10046;DHT22;5063;50.878;4.742;2023-04-15T04:31:47;8.70;99.90
10046;DHT22;5063;50.878;4.742;2023-04-15T04:34:14;8.50;99.90
10046;DHT22;5063;50.878;4.742;2023-04-15T04:36:40;8.70;99.90
10046;DHT22;5063;50.878;4.742;2023-04-15T04:39:06;8.60;99.90
10046;DHT22;5063;50.878;4.742;2023-04-15T04:41:32;8.60;99.90
10046;DHT22;5063;50.878;4.742;2023-04-15T04:43:58;8.60;99.90
10046;DHT22;5063;50.878;4.742;2023-04-15T04:46:24;8.70;99.90
10046;DHT22;5063;50.878;4.742;2023-04-15T04:48:49;8.70;99.90
10046;DHT22;5063;50.878;4.742;2023-04-15T04:51:15;8.70;99.90
10046;DHT22;5063;50.878;4.742;2023-04-15T04:53:41;8.70;99.90
10046;DHT22;5063;50.878;4.742;2023-04-15T04:56:08;8.70;99.90
10046;DHT22;5063;50.878;4.742;2023-04-15T04:58:33;8.80;99.90
10046;DHT22;5063;50.878;4.742;2023-04-15T05:00:59;8.80;99.90
10046;DHT22;5063;50.878;4.742;2023-04-15T05:03:25;8.90;99.90
10046;DHT22;5063;50.878;4.742;2023-04-15T05:05:51;8.80;99.90
10046;DHT22;5063;50.878;4.742;2023-04-15T05:08:17;8.90;99.90
10046;DHT22;5063;50.878;4.742;2023-04-15T05:10:43;9.00;99.90
10046;DHT22;5063;50.878;4.742;2023-04-15T05:13:09;9.00;99.90
10046;DHT22;5063;50.878;4.742;2023-04-15T05:15:35;9.10;99.90
10046;DHT22;5063;50.878;4.742;2023-04-15T05:18:01;9.10;99.90
10046;DHT22;5063;50.878;4.742;2023-04-15T05:20:27;9.10;99.90
10046;DHT22;5063;50.878;4.742;2023-04-15T05:22:53;9.20;99.90
10046;DHT22;5063;50.878;4.742;2023-04-15T05:25:19;9.30;99.90
10046;DHT22;5063;50.878;4.742;2023-04-15T05:27:45;9.00;99.90
10046;DHT22;5063;50.878;4.742;2023-04-15T05:30:11;9.40;99.90
10046;DHT22;5063;50.878;4.742;2023-04-15T05:32:37;9.40;99.90
10046;DHT22;5063;50.878;4.742;2023-04-15T05:35:03;9.50;99.90
10046;DHT22;5063;50.878;4.742;2023-04-15T05:37:29;9.50;99.90
10046;DHT22;5063;50.878;4.742;2023-04-15T05:39:55;9.50;99.90
10046;DHT22;5063;50.878;4.742;2023-04-15T05:42:21;9.40;99.90
10046;DHT22;5063;50.878;4.742;2023-04-15T05:44:46;9.30;99.90
10046;DHT22;5063;50.878;4.742;2023-04-15T05:47:12;9.40;99.90
10046;DHT22;5063;50.878;4.742;2023-04-15T05:49:38;9.40;99.90
10046;DHT22;5063;50.878;4.742;2023-04-15T05:52:04;9.50;99.90
10046;DHT22;5063;50.878;4.742;2023-04-15T05:54:30;9.50;99.90
10046;DHT22;5063;50.878;4.742;2023-04-15T05:56:56;9.60;99.90
10046;DHT22;5063;50.878;4.742;2023-04-15T05:59:22;9.70;99.90
10046;DHT22;5063;50.878;4.742;2023-04-15T06:01:48;9.80;99.90
10046;DHT22;5063;50.878;4.742;2023-04-15T06:04:16;9.80;99.90
10046;DHT22;5063;50.878;4.742;2023-04-15T06:06:42;9.70;99.90
10046;DHT22;5063;50.878;4.742;2023-04-15T06:09:08;9.90;99.90
10046;DHT22;5063;50.878;4.742;2023-04-15T06:11:33;10.00;99.90
10046;DHT22;5063;50.878;4.742;2023-04-15T06:13:59;10.00;99.90
10046;DHT22;5063;50.878;4.742;2023-04-15T06:16:25;10.20;99.90
10046;DHT22;5063;50.878;4.742;2023-04-15T06:18:51;10.20;99.90
10046;DHT22;5063;50.878;4.742;2023-04-15T06:21:17;10.30;99.90
10046;DHT22;5063;50.878;4.742;2023-04-15T06:23:43;10.40;99.90
10046;DHT22;5063;50.878;4.742;2023-04-15T06:26:10;10.50;99.90
10046;DHT22;5063;50.878;4.742;2023-04-15T06:28:35;10.70;99.90
10046;DHT22;5063;50.878;4.742;2023-04-15T06:31:01;10.90;99.90
10046;DHT22;5063;50.878;4.742;2023-04-15T06:33:27;11.10;99.90
10046;DHT22;5063;50.878;4.742;2023-04-15T06:35:53;11.20;99.90
10046;DHT22;5063;50.878;4.742;2023-04-15T06:38:19;11.20;99.90
10046;DHT22;5063;50.878;4.742;2023-04-15T06:40:45;11.30;99.90
10046;DHT22;5063;50.878;4.742;2023-04-15T06:43:10;11.70;99.90
10046;DHT22;5063;50.878;4.742;2023-04-15T06:45:36;11.80;99.90
10046;DHT22;5063;50.878;4.742;2023-04-15T06:48:02;12.00;99.90
10046;DHT22;5063;50.878;4.742;2023-04-15T06:50:27;12.40;99.90
10046;DHT22;5063;50.878;4.742;2023-04-15T06:52:54;12.80;99.90
10046;DHT22;5063;50.878;4.742;2023-04-15T06:55:20;13.10;99.90
10046;DHT22;5063;50.878;4.742;2023-04-15T06:57:46;13.50;99.90
10046;DHT22;5063;50.878;4.742;2023-04-15T07:00:12;14.00;99.90
10046;DHT22;5063;50.878;4.742;2023-04-15T07:02:38;14.30;99.90
10046;DHT22;5063;50.878;4.742;2023-04-15T07:05:06;14.40;99.90
10046;DHT22;5063;50.878;4.742;2023-04-15T07:07:32;14.30;99.90
10046;DHT22;5063;50.878;4.742;2023-04-15T07:09:58;14.30;99.90
10046;DHT22;5063;50.878;4.742;2023-04-15T07:12:24;14.40;99.90
10046;DHT22;5063;50.878;4.742;2023-04-15T07:14:50;15.50;99.90
10046;DHT22;5063;50.878;4.742;2023-04-15T07:17:16;16.80;99.90
10046;DHT22;5063;50.878;4.742;2023-04-15T07:19:42;18.90;99.90
10046;DHT22;5063;50.878;4.742;2023-04-15T07:22:07;20.70;99.90
10046;DHT22;5063;50.878;4.742;2023-04-15T07:24:33;21.20;99.90
10046;DHT22;5063;50.878;4.742;2023-04-15T07:26:59;21.10;99.90
10046;DHT22;5063;50.878;4.742;2023-04-15T07:29:24;21.20;99.90
10046;DHT22;5063;50.878;4.742;2023-04-15T07:31:51;20.80;99.90
10046;DHT22;5063;50.878;4.742;2023-04-15T07:34:18;20.60;99.90
10046;DHT22;5063;50.878;4.742;2023-04-15T07:36:44;21.00;99.90
10046;DHT22;5063;50.878;4.742;2023-04-15T07:39:10;21.40;99.90
10046;DHT22;5063;50.878;4.742;2023-04-15T07:41:36;20.90;99.90
10046;DHT22;5063;50.878;4.742;2023-04-15T07:44:02;20.70;99.90
10046;DHT22;5063;50.878;4.742;2023-04-15T07:46:28;20.90;99.90
10046;DHT22;5063;50.878;4.742;2023-04-15T07:48:54;21.20;99.90
10046;DHT22;5063;50.878;4.742;2023-04-15T07:51:20;20.70;99.90
10046;DHT22;5063;50.878;4.742;2023-04-15T07:53:46;20.80;99.90
10046;DHT22;5063;50.878;4.742;2023-04-15T07:56:12;21.00;99.90
10046;DHT22;5063;50.878;4.742;2023-04-15T07:58:38;21.70;99.90
10046;DHT22;5063;50.878;4.742;2023-04-15T08:01:04;21.90;99.90
10046;DHT22;5063;50.878;4.742;2023-04-15T08:03:30;22.20;99.90
10046;DHT22;5063;50.878;4.742;2023-04-15T08:05:56;22.30;99.90
10046;DHT22;5063;50.878;4.742;2023-04-15T08:08:22;22.50;99.90
10046;DHT22;5063;50.878;4.742;2023-04-15T08:10:48;22.30;99.90
10046;DHT22;5063;50.878;4.742;2023-04-15T08:13:14;21.80;99.90
10046;DHT22;5063;50.878;4.742;2023-04-15T08:15:40;22.00;99.90
10046;DHT22;5063;50.878;4.742;2023-04-15T08:18:06;22.20;99.90
10046;DHT22;5063;50.878;4.742;2023-04-15T08:20:32;22.40;99.90
10046;DHT22;5063;50.878;4.742;2023-04-15T08:22:58;22.40;99.90
10046;DHT22;5063;50.878;4.742;2023-04-15T08:25:24;21.80;99.90
10046;DHT22;5063;50.878;4.742;2023-04-15T08:27:50;22.10;99.90
10046;DHT22;5063;50.878;4.742;2023-04-15T08:30:16;22.30;99.90
10046;DHT22;5063;50.878;4.742;2023-04-15T08:32:44;22.20;99.90
10046;DHT22;5063;50.878;4.742;2023-04-15T08:35:11;22.30;99.90
10046;DHT22;5063;50.878;4.742;2023-04-15T08:37:37;21.80;99.90
10046;DHT22;5063;50.878;4.742;2023-04-15T08:40:03;21.20;99.90
10046;DHT22;5063;50.878;4.742;2023-04-15T08:42:36;21.00;99.90
10046;DHT22;5063;50.878;4.742;2023-04-15T08:45:08;21.30;99.90
10046;DHT22;5063;50.878;4.742;2023-04-15T08:47:37;21.40;99.90
10046;DHT22;5063;50.878;4.742;2023-04-15T08:50:08;21.20;99.90
10046;DHT22;5063;50.878;4.742;2023-04-15T08:52:35;20.60;99.90
10046;DHT22;5063;50.878;4.742;2023-04-15T08:55:01;21.30;99.90
10046;DHT22;5063;50.878;4.742;2023-04-15T08:57:28;21.50;99.90
10046;DHT22;5063;50.878;4.742;2023-04-15T08:59:57;21.00;99.90
10046;DHT22;5063;50.878;4.742;2023-04-15T09:02:24;20.50;99.90
10046;DHT22;5063;50.878;4.742;2023-04-15T09:04:52;20.30;99.90
10046;DHT22;5063;50.878;4.742;2023-04-15T09:07:17;20.40;99.90
10046;DHT22;5063;50.878;4.742;2023-04-15T09:09:43;20.30;99.90
10046;DHT22;5063;50.878;4.742;2023-04-15T09:12:10;20.40;99.90
10046;DHT22;5063;50.878;4.742;2023-04-15T09:14:38;20.10;99.90
10046;DHT22;5063;50.878;4.742;2023-04-15T09:17:05;19.70;99.90
10046;DHT22;5063;50.878;4.742;2023-04-15T09:19:34;19.80;99.90
10046;DHT22;5063;50.878;4.742;2023-04-15T09:22:01;20.10;99.90
10046;DHT22;5063;50.878;4.742;2023-04-15T09:24:35;19.90;99.90
10046;DHT22;5063;50.878;4.742;2023-04-15T09:27:02;18.80;99.90
10046;DHT22;5063;50.878;4.742;2023-04-15T09:29:28;17.70;99.90
10046;DHT22;5063;50.878;4.742;2023-04-15T09:31:53;16.70;99.90
10046;DHT22;5063;50.878;4.742;2023-04-15T09:34:19;15.90;99.90
10046;DHT22;5063;50.878;4.742;2023-04-15T09:36:54;15.80;99.90
10046;DHT22;5063;50.878;4.742;2023-04-15T09:39:20;15.50;99.90
10046;DHT22;5063;50.878;4.742;2023-04-15T09:41:46;15.50;99.90
10046;DHT22;5063;50.878;4.742;2023-04-15T09:44:25;15.40;99.90
10046;DHT22;5063;50.878;4.742;2023-04-15T09:46:51;15.40;99.90
10046;DHT22;5063;50.878;4.742;2023-04-15T09:49:17;15.40;99.90
10046;DHT22;5063;50.878;4.742;2023-04-15T09:51:43;15.30;99.90
10046;DHT22;5063;50.878;4.742;2023-04-15T09:54:09;15.30;99.90
10046;DHT22;5063;50.878;4.742;2023-04-15T09:56:35;15.50;99.90
10046;DHT22;5063;50.878;4.742;2023-04-15T09:59:04;15.70;99.90
10046;DHT22;5063;50.878;4.742;2023-04-15T10:01:30;15.70;99.90
10046;DHT22;5063;50.878;4.742;2023-04-15T10:03:57;15.60;99.90
10046;DHT22;5063;50.878;4.742;2023-04-15T10:06:26;15.80;99.90
10046;DHT22;5063;50.878;4.742;2023-04-15T10:08:53;15.90;99.90
10046;DHT22;5063;50.878;4.742;2023-04-15T10:11:20;16.00;99.90
10046;DHT22;5063;50.878;4.742;2023-04-15T10:13:48;15.80;99.90
10046;DHT22;5063;50.878;4.742;2023-04-15T10:16:19;15.70;99.90
10046;DHT22;5063;50.878;4.742;2023-04-15T10:18:46;15.80;99.90
10046;DHT22;5063;50.878;4.742;2023-04-15T10:21:13;15.90;99.90
10046;DHT22;5063;50.878;4.742;2023-04-15T10:23:44;15.90;99.90
10046;DHT22;5063;50.878;4.742;2023-04-15T10:26:10;15.80;99.90
10046;DHT22;5063;50.878;4.742;2023-04-15T10:28:37;15.70;99.90
10046;DHT22;5063;50.878;4.742;2023-04-15T10:31:04;15.80;99.90
10046;DHT22;5063;50.878;4.742;2023-04-15T10:33:30;15.90;99.90
10046;DHT22;5063;50.878;4.742;2023-04-15T10:35:57;15.90;99.90
10046;DHT22;5063;50.878;4.742;2023-04-15T10:38:40;15.90;99.90
10046;DHT22;5063;50.878;4.742;2023-04-15T10:41:26;15.80;99.90
10046;DHT22;5063;50.878;4.742;2023-04-15T10:44:02;15.80;99.90
10046;DHT22;5063;50.878;4.742;2023-04-15T10:46:40;15.90;99.90
10046;DHT22;5063;50.878;4.742;2023-04-15T10:49:09;15.90;99.90
10046;DHT22;5063;50.878;4.742;2023-04-15T10:51:38;15.80;99.90
10046;DHT22;5063;50.878;4.742;2023-04-15T10:59:32;15.90;99.90
10046;DHT22;5063;50.878;4.742;2023-04-15T11:02:02;15.90;99.90
10046;DHT22;5063;50.878;4.742;2023-04-15T11:04:54;15.90;99.90
10046;DHT22;5063;50.878;4.742;2023-04-15T11:07:33;15.90;99.90
10046;DHT22;5063;50.878;4.742;2023-04-15T11:09:59;15.80;99.90
10046;DHT22;5063;50.878;4.742;2023-04-15T11:12:34;15.90;99.90
10046;DHT22;5063;50.878;4.742;2023-04-15T11:15:24;16.00;99.90
10046;DHT22;5063;50.878;4.742;2023-04-15T11:17:51;16.00;99.90
10046;DHT22;5063;50.878;4.742;2023-04-15T11:20:17;16.20;99.90
10046;DHT22;5063;50.878;4.742;2023-04-15T11:22:50;16.20;99.90
10046;DHT22;5063;50.878;4.742;2023-04-15T11:25:27;16.20;99.90
10046;DHT22;5063;50.878;4.742;2023-04-15T11:27:53;15.70;99.20
10046;DHT22;5063;50.878;4.742;2023-04-15T11:30:21;15.90;99.90
10046;DHT22;5063;50.878;4.742;2023-04-15T11:32:48;16.10;99.10
10046;DHT22;5063;50.878;4.742;2023-04-15T11:35:15;16.30;98.90
10046;DHT22;5063;50.878;4.742;2023-04-15T11:37:41;16.10;99.30
10046;DHT22;5063;50.878;4.742;2023-04-15T11:40:08;16.10;99.90
10046;DHT22;5063;50.878;4.742;2023-04-15T11:42:33;15.90;99.90
10046;DHT22;5063;50.878;4.742;2023-04-15T11:45:12;15.90;99.90
10046;DHT22;5063;50.878;4.742;2023-04-15T11:47:39;15.80;99.90
10046;DHT22;5063;50.878;4.742;2023-04-15T11:52:54;15.80;98.60
10046;DHT22;5063;50.878;4.742;2023-04-15T11:55:20;15.70;99.30
10046;DHT22;5063;50.878;4.742;2023-04-15T12:00:32;15.90;99.90
10046;DHT22;5063;50.878;4.742;2023-04-15T12:03:18;16.00;99.90
10046;DHT22;5063;50.878;4.742;2023-04-15T12:06:10;16.20;99.90
10046;DHT22;5063;50.878;4.742;2023-04-15T12:09:02;16.50;99.90
10046;DHT22;5063;50.878;4.742;2023-04-15T12:11:31;16.60;99.90
10046;DHT22;5063;50.878;4.742;2023-04-15T12:14:04;16.50;99.00
10046;DHT22;5063;50.878;4.742;2023-04-15T12:16:31;16.30;97.40
10046;DHT22;5063;50.878;4.742;2023-04-15T12:18:58;16.10;97.90
10046;DHT22;5063;50.878;4.742;2023-04-15T12:21:33;16.30;98.50
10046;DHT22;5063;50.878;4.742;2023-04-15T12:24:02;16.30;98.70
10046;DHT22;5063;50.878;4.742;2023-04-15T12:26:32;16.30;99.10
10046;DHT22;5063;50.878;4.742;2023-04-15T12:29:03;16.60;99.80
10046;DHT22;5063;50.878;4.742;2023-04-15T12:31:29;16.60;98.80
10046;DHT22;5063;50.878;4.742;2023-04-15T12:33:59;16.60;98.80
10046;DHT22;5063;50.878;4.742;2023-04-15T12:36:26;16.40;99.20
10046;DHT22;5063;50.878;4.742;2023-04-15T12:38:51;16.50;99.80
10046;DHT22;5063;50.878;4.742;2023-04-15T12:41:18;16.50;97.70
10046;DHT22;5063;50.878;4.742;2023-04-15T12:43:44;16.70;96.60
10046;DHT22;5063;50.878;4.742;2023-04-15T12:46:11;16.70;96.70
10046;DHT22;5063;50.878;4.742;2023-04-15T12:48:37;16.30;96.90
10046;DHT22;5063;50.878;4.742;2023-04-15T12:51:03;16.30;98.10
10046;DHT22;5063;50.878;4.742;2023-04-15T12:53:28;16.20;97.40
10046;DHT22;5063;50.878;4.742;2023-04-15T12:55:54;16.30;98.90
10046;DHT22;5063;50.878;4.742;2023-04-15T12:58:20;16.30;95.20
10046;DHT22;5063;50.878;4.742;2023-04-15T13:00:46;16.30;97.10
10046;DHT22;5063;50.878;4.742;2023-04-15T13:03:13;16.20;99.00
10046;DHT22;5063;50.878;4.742;2023-04-15T13:05:39;16.40;98.80
10046;DHT22;5063;50.878;4.742;2023-04-15T13:08:05;16.40;99.50
10046;DHT22;5063;50.878;4.742;2023-04-15T13:10:31;16.40;98.20
10046;DHT22;5063;50.878;4.742;2023-04-15T13:12:57;16.40;96.90
10046;DHT22;5063;50.878;4.742;2023-04-15T13:15:23;16.60;97.80
10046;DHT22;5063;50.878;4.742;2023-04-15T13:17:49;16.40;99.30
10046;DHT22;5063;50.878;4.742;2023-04-15T13:20:15;16.60;99.90
10046;DHT22;5063;50.878;4.742;2023-04-15T13:22:40;16.70;98.60
10046;DHT22;5063;50.878;4.742;2023-04-15T13:25:07;16.70;98.10
10046;DHT22;5063;50.878;4.742;2023-04-15T13:27:33;16.60;96.30
10046;DHT22;5063;50.878;4.742;2023-04-15T13:29:59;16.60;97.00
10046;DHT22;5063;50.878;4.742;2023-04-15T13:32:25;16.70;98.60
10046;DHT22;5063;50.878;4.742;2023-04-15T13:34:50;16.80;99.20
10046;DHT22;5063;50.878;4.742;2023-04-15T13:37:16;16.80;99.50
10046;DHT22;5063;50.878;4.742;2023-04-15T13:39:42;16.60;97.10
10046;DHT22;5063;50.878;4.742;2023-04-15T13:42:08;16.40;96.20
10046;DHT22;5063;50.878;4.742;2023-04-15T13:44:34;16.60;99.10
10046;DHT22;5063;50.878;4.742;2023-04-15T13:47:00;16.70;99.50
10046;DHT22;5063;50.878;4.742;2023-04-15T13:49:25;16.60;99.80
10046;DHT22;5063;50.878;4.742;2023-04-15T13:51:51;16.50;99.00
10046;DHT22;5063;50.878;4.742;2023-04-15T13:54:17;16.50;99.10
10046;DHT22;5063;50.878;4.742;2023-04-15T13:56:42;16.60;99.90
10046;DHT22;5063;50.878;4.742;2023-04-15T13:59:08;16.60;99.90
10046;DHT22;5063;50.878;4.742;2023-04-15T14:01:34;16.50;99.90
10046;DHT22;5063;50.878;4.742;2023-04-15T14:04:00;16.50;99.90
10046;DHT22;5063;50.878;4.742;2023-04-15T14:06:27;16.70;99.90
10046;DHT22;5063;50.878;4.742;2023-04-15T14:08:53;16.50;99.90
10046;DHT22;5063;50.878;4.742;2023-04-15T14:11:19;16.40;99.90
10046;DHT22;5063;50.878;4.742;2023-04-15T14:13:45;16.30;99.90
10046;DHT22;5063;50.878;4.742;2023-04-15T14:16:10;16.30;99.90
10046;DHT22;5063;50.878;4.742;2023-04-15T14:18:36;16.50;99.90
10046;DHT22;5063;50.878;4.742;2023-04-15T14:21:02;16.80;99.90
10046;DHT22;5063;50.878;4.742;2023-04-15T14:23:28;16.70;99.90
10046;DHT22;5063;50.878;4.742;2023-04-15T14:25:54;16.70;99.90
10046;DHT22;5063;50.878;4.742;2023-04-15T14:28:19;16.80;99.90
10046;DHT22;5063;50.878;4.742;2023-04-15T14:30:45;16.80;99.90
10046;DHT22;5063;50.878;4.742;2023-04-15T14:33:11;16.80;99.90
10046;DHT22;5063;50.878;4.742;2023-04-15T14:35:37;16.70;99.90
10046;DHT22;5063;50.878;4.742;2023-04-15T14:38:02;16.50;99.90
10046;DHT22;5063;50.878;4.742;2023-04-15T14:40:31;16.50;99.90
10046;DHT22;5063;50.878;4.742;2023-04-15T14:42:57;16.70;99.90
10046;DHT22;5063;50.878;4.742;2023-04-15T14:45:23;16.70;99.90
10046;DHT22;5063;50.878;4.742;2023-04-15T14:47:48;16.40;99.90
10046;DHT22;5063;50.878;4.742;2023-04-15T14:50:14;16.40;99.90
10046;DHT22;5063;50.878;4.742;2023-04-15T14:52:40;16.30;99.90
10046;DHT22;5063;50.878;4.742;2023-04-15T14:55:09;16.20;99.90
10046;DHT22;5063;50.878;4.742;2023-04-15T14:57:40;16.20;99.90
10046;DHT22;5063;50.878;4.742;2023-04-15T15:00:07;16.30;99.90
10046;DHT22;5063;50.878;4.742;2023-04-15T15:02:34;16.30;99.90
10046;DHT22;5063;50.878;4.742;2023-04-15T15:05:01;16.10;99.90
10046;DHT22;5063;50.878;4.742;2023-04-15T15:07:27;16.00;99.90
10046;DHT22;5063;50.878;4.742;2023-04-15T15:09:53;15.90;99.90
10046;DHT22;5063;50.878;4.742;2023-04-15T15:12:19;16.00;99.90
10046;DHT22;5063;50.878;4.742;2023-04-15T15:14:47;16.00;99.90
10046;DHT22;5063;50.878;4.742;2023-04-15T15:17:13;15.90;99.90
10046;DHT22;5063;50.878;4.742;2023-04-15T15:19:39;16.00;99.90
10046;DHT22;5063;50.878;4.742;2023-04-15T15:22:05;16.20;99.90
10046;DHT22;5063;50.878;4.742;2023-04-15T15:24:30;16.00;99.90
10046;DHT22;5063;50.878;4.742;2023-04-15T15:26:56;15.80;99.90
10046;DHT22;5063;50.878;4.742;2023-04-15T15:29:22;16.10;99.90
10046;DHT22;5063;50.878;4.742;2023-04-15T15:31:48;16.30;99.90
10046;DHT22;5063;50.878;4.742;2023-04-15T15:34:15;16.30;99.90
10046;DHT22;5063;50.878;4.742;2023-04-15T15:36:41;16.60;99.90
10046;DHT22;5063;50.878;4.742;2023-04-15T15:39:07;16.50;99.90
10046;DHT22;5063;50.878;4.742;2023-04-15T15:41:33;16.60;99.90
10046;DHT22;5063;50.878;4.742;2023-04-15T15:43:58;16.40;99.90
10046;DHT22;5063;50.878;4.742;2023-04-15T15:46:26;16.40;99.90
10046;DHT22;5063;50.878;4.742;2023-04-15T15:48:53;16.60;99.90
10046;DHT22;5063;50.878;4.742;2023-04-15T15:51:19;16.70;99.90
10046;DHT22;5063;50.878;4.742;2023-04-15T15:53:45;16.90;99.90
10046;DHT22;5063;50.878;4.742;2023-04-15T15:56:11;17.10;99.90
10046;DHT22;5063;50.878;4.742;2023-04-15T15:58:36;17.10;99.90
10046;DHT22;5063;50.878;4.742;2023-04-15T16:01:02;16.90;99.90